Time;durP1;ratioP1;P1;durP2;ratioP2;P2;SDS_P1;SDS_P2;PMS_P1;PMS_P2;Temp;Humidity;BMP_temperature;BMP_pressure;BME280_temperature;BME280_humidity;BME280_pressure;Samples;Min_cycle;Max_cycle;Signal;HPM_P1;HPM_P2
2023/06/10 00:02:31;;;;;;;11.40;2.70;;;;;;;-128.00;-1.00;-1.00;106563;1260;1012631;-73
2023/06/10 00:05:20;;;;;;;9.00;2.90;;;;;;;-128.00;-1.00;-1.00;106509;1254;1013266;-72
2023/06/10 00:08:07;;;;;;;9.20;2.40;;;;;;;-128.00;-1.00;-1.00;106503;1254;1010059;-71
2023/06/10 00:10:54;;;;;;;8.20;2.50;;;;;;;-128.00;-1.00;-1.00;106439;1254;1010750;-72
2023/06/10 00:13:41;;;;;;;11.90;2.60;;;;;;;-128.00;-1.00;-1.00;106486;1254;1012684;-70
2023/06/10 00:16:28;;;;;;;8.30;2.50;;;;;;;-128.00;-1.00;-1.00;106572;1257;1011751;-71
2023/06/10 00:19:15;;;;;;;7.70;2.30;;;;;;;-128.00;-1.00;-1.00;106505;1254;1012945;-70
2023/06/10 00:22:02;;;;;;;10.00;2.60;;;;;;;-128.00;-1.00;-1.00;106464;1254;1009849;-71
2023/06/10 00:24:50;;;;;;;10.50;2.60;;;;;;;-128.00;-1.00;-1.00;106545;1254;1010806;-72
2023/06/10 00:27:37;;;;;;;9.40;2.60;;;;;;;-128.00;-1.00;-1.00;106577;1254;1012775;-70
2023/06/10 00:30:25;;;;;;;11.60;2.40;;;;;;;-128.00;-1.00;-1.00;106536;1254;1012551;-72
2023/06/10 00:33:12;;;;;;;8.10;2.50;;;;;;;-128.00;-1.00;-1.00;106469;1254;1012632;-73
2023/06/10 00:36:00;;;;;;;9.60;2.50;;;;;;;-128.00;-1.00;-1.00;106463;1255;1009933;-71
2023/06/10 00:38:53;;;;;;;9.90;2.30;;;;;;;-128.00;-1.00;-1.00;106503;1254;1010251;-72
2023/06/10 00:41:40;;;;;;;9.40;2.90;;;;;;;-128.00;-1.00;-1.00;106258;1259;1012890;-70
2023/06/10 00:44:26;;;;;;;9.90;2.70;;;;;;;-128.00;-1.00;-1.00;106310;1260;1011882;-72
2023/06/10 00:47:14;;;;;;;9.80;2.40;;;;;;;-128.00;-1.00;-1.00;106291;1259;1012990;-73
2023/06/10 00:50:02;;;;;;;8.90;2.10;;;;;;;-128.00;-1.00;-1.00;106081;1263;1009828;-73
2023/06/10 00:52:48;;;;;;;7.40;2.20;;;;;;;-128.00;-1.00;-1.00;106132;1263;1010694;-72
2023/06/10 00:55:39;;;;;;;8.70;2.30;;;;;;;-128.00;-1.00;-1.00;106072;1263;1012830;-73
2023/06/10 00:58:26;;;;;;;11.90;2.30;;;;;;;-128.00;-1.00;-1.00;106118;1263;1012691;-73
2023/06/10 01:01:14;;;;;;;10.00;2.80;;;;;;;-128.00;-1.00;-1.00;106057;1264;1012843;-73
2023/06/10 01:04:04;;;;;;;9.90;2.20;;;;;;;-128.00;-1.00;-1.00;106030;1263;1009056;-71
2023/06/10 01:07:02;;;;;;;8.00;1.90;;;;;;;-128.00;-1.00;-1.00;106079;1263;1010871;-72
2023/06/10 01:10:09;;;;;;;7.40;2.20;;;;;;;-128.00;-1.00;-1.00;106143;1263;1013221;-73
2023/06/10 01:13:06;;;;;;;11.70;2.60;;;;;;;-128.00;-1.00;-1.00;106290;1263;1012355;-72
2023/06/10 01:15:53;;;;;;;10.50;2.30;;;;;;;-128.00;-1.00;-1.00;106275;1259;1012406;-73
2023/06/10 01:18:41;;;;;;;7.20;2.20;;;;;;;-128.00;-1.00;-1.00;106291;1259;1010558;-73
2023/06/10 01:21:29;;;;;;;8.30;2.40;;;;;;;-128.00;-1.00;-1.00;106491;1254;1011663;-71
2023/06/10 01:24:18;;;;;;;9.30;2.00;;;;;;;-128.00;-1.00;-1.00;106575;1254;1012850;-73
2023/06/10 01:27:13;;;;;;;7.40;1.90;;;;;;;-128.00;-1.00;-1.00;106490;1261;1012237;-73
2023/06/10 01:30:18;;;;;;;8.70;2.10;;;;;;;-128.00;-1.00;-1.00;106549;1254;1013445;-73
2023/06/10 01:33:08;;;;;;;8.20;2.10;;;;;;;-128.00;-1.00;-1.00;106544;1254;1009953;-72
2023/06/10 01:35:58;;;;;;;9.80;2.10;;;;;;;-128.00;-1.00;-1.00;106487;1254;1011280;-73
2023/06/10 01:38:49;;;;;;;10.20;2.00;;;;;;;-128.00;-1.00;-1.00;106434;1254;1012702;-73
2023/06/10 01:41:38;;;;;;;9.60;2.40;;;;;;;-128.00;-1.00;-1.00;106378;1254;1013307;-71
2023/06/10 01:44:25;;;;;;;10.10;2.00;;;;;;;-128.00;-1.00;-1.00;106437;1254;1013337;-72
2023/06/10 01:47:13;;;;;;;11.20;2.10;;;;;;;-128.00;-1.00;-1.00;106565;1254;1009623;-79
2023/06/10 01:50:01;;;;;;;7.10;2.10;;;;;;;-128.00;-1.00;-1.00;106486;1254;1010988;-72
2023/06/10 01:52:48;;;;;;;11.70;2.10;;;;;;;-128.00;-1.00;-1.00;106597;1254;1013449;-73
2023/06/10 01:55:37;;;;;;;8.80;2.10;;;;;;;-128.00;-1.00;-1.00;106556;1254;1013520;-72
2023/06/10 01:58:25;;;;;;;8.20;1.80;;;;;;;-128.00;-1.00;-1.00;106530;1254;1012719;-71
2023/06/10 02:01:12;;;;;;;7.80;2.00;;;;;;;-128.00;-1.00;-1.00;106496;1254;1010132;-72
2023/06/10 02:03:59;;;;;;;7.40;1.80;;;;;;;-128.00;-1.00;-1.00;106502;1254;1010199;-73
2023/06/10 02:06:46;;;;;;;8.60;2.00;;;;;;;-128.00;-1.00;-1.00;106511;1254;1013027;-71
2023/06/10 02:09:36;;;;;;;8.90;2.20;;;;;;;-128.00;-1.00;-1.00;106462;1254;1013175;-74
2023/06/10 02:12:25;;;;;;;8.40;1.90;;;;;;;-128.00;-1.00;-1.00;106414;1257;1012947;-74
2023/06/10 02:15:14;;;;;;;7.90;1.90;;;;;;;-128.00;-1.00;-1.00;106288;1259;1011022;-73
2023/06/10 02:18:02;;;;;;;8.20;2.10;;;;;;;-128.00;-1.00;-1.00;106301;1259;1010485;-71
2023/06/10 02:20:49;;;;;;;7.80;2.20;;;;;;;-128.00;-1.00;-1.00;106309;1259;1012914;-71
2023/06/10 02:23:35;;;;;;;9.10;2.00;;;;;;;-128.00;-1.00;-1.00;106267;1259;1013033;-72
2023/06/10 02:26:25;;;;;;;7.80;1.90;;;;;;;-128.00;-1.00;-1.00;106282;1259;1012528;-72
2023/06/10 02:29:12;;;;;;;7.00;1.70;;;;;;;-128.00;-1.00;-1.00;106317;1259;1009969;-72
2023/06/10 02:32:02;;;;;;;9.50;1.70;;;;;;;-128.00;-1.00;-1.00;106001;1262;1011118;-71
2023/06/10 02:34:49;;;;;;;6.50;1.70;;;;;;;-128.00;-1.00;-1.00;105918;1265;1012260;-71
2023/06/10 02:37:36;;;;;;;5.90;1.80;;;;;;;-128.00;-1.00;-1.00;105760;1265;1012378;-72
2023/06/10 02:40:25;;;;;;;10.10;2.10;;;;;;;-128.00;-1.00;-1.00;105929;1265;1012879;-72
2023/06/10 02:43:12;;;;;;;6.70;1.70;;;;;;;-128.00;-1.00;-1.00;105959;1265;1009347;-73
2023/06/10 02:45:59;;;;;;;7.70;1.70;;;;;;;-128.00;-1.00;-1.00;105976;1262;1010985;-73
2023/06/10 02:48:46;;;;;;;8.20;2.00;;;;;;;-128.00;-1.00;-1.00;106069;1262;1013462;-72
2023/06/10 02:51:38;;;;;;;6.70;1.60;;;;;;;-128.00;-1.00;-1.00;106114;1262;1012989;-73
2023/06/10 02:54:26;;;;;;;7.60;1.70;;;;;;;-128.00;-1.00;-1.00;106059;1262;1014108;-73
2023/06/10 02:57:14;;;;;;;8.60;1.80;;;;;;;-128.00;-1.00;-1.00;106177;1261;1010014;-73
2023/06/10 03:00:02;;;;;;;8.50;1.70;;;;;;;-128.00;-1.00;-1.00;106086;1265;1011458;-72
2023/06/10 03:02:50;;;;;;;6.60;1.60;;;;;;;-128.00;-1.00;-1.00;106124;1259;1012465;-72
2023/06/10 03:05:41;;;;;;;8.60;2.00;;;;;;;-128.00;-1.00;-1.00;106394;1256;1012922;-72
2023/06/10 03:08:29;;;;;;;8.90;2.10;;;;;;;-128.00;-1.00;-1.00;106538;1255;1012881;-73
2023/06/10 03:11:17;;;;;;;8.10;1.50;;;;;;;-128.00;-1.00;-1.00;106470;1255;1009962;-74
2023/06/10 03:14:05;;;;;;;6.70;1.50;;;;;;;-128.00;-1.00;-1.00;106596;1254;1010897;-72
2023/06/10 03:16:51;;;;;;;8.20;1.60;;;;;;;-128.00;-1.00;-1.00;106423;1254;1012096;-72
2023/06/10 03:19:40;;;;;;;8.20;1.60;;;;;;;-128.00;-1.00;-1.00;106558;1254;1012097;-73
2023/06/10 03:22:28;;;;;;;7.70;1.50;;;;;;;-128.00;-1.00;-1.00;106616;1254;1012590;-72
2023/06/10 03:25:22;;;;;;;12.80;1.70;;;;;;;-128.00;-1.00;-1.00;106558;1254;1010061;-73
2023/06/10 03:28:11;;;;;;;16.30;1.80;;;;;;;-128.00;-1.00;-1.00;106492;1254;1011781;-73
2023/06/10 03:30:58;;;;;;;10.80;2.10;;;;;;;-128.00;-1.00;-1.00;106497;1254;1012517;-73
2023/06/10 03:33:45;;;;;;;7.40;1.80;;;;;;;-128.00;-1.00;-1.00;106505;1262;1012387;-72
2023/06/10 03:36:32;;;;;;;6.70;1.80;;;;;;;-128.00;-1.00;-1.00;106404;1254;1014168;-73
2023/06/10 03:39:20;;;;;;;9.30;1.90;;;;;;;-128.00;-1.00;-1.00;106467;1254;1009694;-72
2023/06/10 03:42:10;;;;;;;5.90;1.80;;;;;;;-128.00;-1.00;-1.00;106404;1256;1010838;-73
2023/06/10 03:44:57;;;;;;;8.40;2.00;;;;;;;-128.00;-1.00;-1.00;106449;1255;1012188;-73
2023/06/10 03:47:45;;;;;;;6.60;1.90;;;;;;;-128.00;-1.00;-1.00;106577;1254;1012750;-73
2023/06/10 03:50:36;;;;;;;7.30;1.70;;;;;;;-128.00;-1.00;-1.00;106678;1257;1012436;-72
2023/06/10 03:53:22;;;;;;;7.00;1.90;;;;;;;-128.00;-1.00;-1.00;106530;1254;1010546;-72
2023/06/10 03:56:12;;;;;;;6.70;1.60;;;;;;;-128.00;-1.00;-1.00;106553;1254;1011324;-73
2023/06/10 03:58:59;;;;;;;8.70;2.00;;;;;;;-128.00;-1.00;-1.00;106518;1254;1013684;-73
2023/06/10 04:01:46;;;;;;;10.40;1.90;;;;;;;-128.00;-1.00;-1.00;106516;1254;1012820;-71
2023/06/10 04:04:33;;;;;;;7.00;1.80;;;;;;;-128.00;-1.00;-1.00;106524;1254;1012480;-72
2023/06/10 04:07:20;;;;;;;6.70;1.90;;;;;;;-128.00;-1.00;-1.00;106557;1254;1009447;-73
2023/06/10 04:10:09;;;;;;;9.30;2.40;;;;;;;-128.00;-1.00;-1.00;106455;1254;1011607;-71
2023/06/10 04:12:56;;;;;;;5.70;1.80;;;;;;;-128.00;-1.00;-1.00;106555;1254;1012657;-73
2023/06/10 04:15:45;;;;;;;7.00;1.40;;;;;;;-128.00;-1.00;-1.00;106549;1258;1014013;-73
2023/06/10 04:18:35;;;;;;;8.90;1.90;;;;;;;-128.00;-1.00;-1.00;106604;1254;1012092;-72
2023/06/10 04:21:25;;;;;;;6.70;1.90;;;;;;;-128.00;-1.00;-1.00;106534;1254;1010058;-72
2023/06/10 04:24:12;;;;;;;8.80;1.70;;;;;;;-128.00;-1.00;-1.00;106557;1254;1011658;-73
2023/06/10 04:26:58;;;;;;;9.10;1.70;;;;;;;-128.00;-1.00;-1.00;106457;1254;1011750;-71
2023/06/10 04:29:45;;;;;;;6.40;2.00;;;;;;;-128.00;-1.00;-1.00;106550;1254;1012477;-73
2023/06/10 04:32:32;;;;;;;7.40;1.90;;;;;;;-128.00;-1.00;-1.00;106542;1254;1012216;-73
2023/06/10 04:35:20;;;;;;;7.20;1.80;;;;;;;-128.00;-1.00;-1.00;106551;1254;1010552;-74
2023/06/10 04:38:08;;;;;;;7.00;1.80;;;;;;;-128.00;-1.00;-1.00;106566;1254;1010485;-74
2023/06/10 04:40:57;;;;;;;10.80;1.80;;;;;;;-128.00;-1.00;-1.00;106518;1255;1012344;-74
2023/06/10 04:43:48;;;;;;;7.70;1.90;;;;;;;-128.00;-1.00;-1.00;106621;1254;1012201;-76
2023/06/10 04:46:37;;;;;;;6.30;1.80;;;;;;;-128.00;-1.00;-1.00;106559;1254;1012965;-73
2023/06/10 04:49:24;;;;;;;8.20;1.90;;;;;;;-128.00;-1.00;-1.00;106575;1254;1009550;-73
2023/06/10 04:52:10;;;;;;;8.00;1.90;;;;;;;-128.00;-1.00;-1.00;106476;1254;1010645;-75
2023/06/10 04:55:00;;;;;;;7.80;2.10;;;;;;;-128.00;-1.00;-1.00;106525;1254;1012589;-72
2023/06/10 04:57:50;;;;;;;7.90;2.10;;;;;;;-128.00;-1.00;-1.00;106491;1254;1013065;-76
2023/06/10 05:00:39;;;;;;;9.00;2.10;;;;;;;-128.00;-1.00;-1.00;106448;1255;1013245;-76
2023/06/10 05:03:27;;;;;;;9.60;1.60;;;;;;;-128.00;-1.00;-1.00;106400;1255;1010273;-72
2023/06/10 05:06:14;;;;;;;8.70;2.30;;;;;;;-128.00;-1.00;-1.00;106430;1254;1010986;-76
2023/06/10 05:09:01;;;;;;;7.60;2.00;;;;;;;-128.00;-1.00;-1.00;106425;1254;1012520;-76
2023/06/10 05:11:48;;;;;;;8.80;2.10;;;;;;;-128.00;-1.00;-1.00;106418;1254;1013265;-78
2023/06/10 05:14:35;;;;;;;8.40;2.10;;;;;;;-128.00;-1.00;-1.00;106477;1255;1013021;-74
2023/06/10 05:17:22;;;;;;;10.30;1.80;;;;;;;-128.00;-1.00;-1.00;106582;1254;1010437;-70
2023/06/10 05:20:10;;;;;;;10.50;2.10;;;;;;;-128.00;-1.00;-1.00;106206;1259;1011141;-73
2023/06/10 05:22:57;;;;;;;7.00;1.70;;;;;;;-128.00;-1.00;-1.00;106229;1259;1012589;-72
2023/06/10 05:25:43;;;;;;;7.30;1.80;;;;;;;-128.00;-1.00;-1.00;106315;1260;1012503;-73
2023/06/10 05:28:31;;;;;;;11.00;1.90;;;;;;;-128.00;-1.00;-1.00;106267;1259;1012295;-73
2023/06/10 05:31:18;;;;;;;9.00;1.60;;;;;;;-128.00;-1.00;-1.00;106275;1259;1009743;-72
2023/06/10 05:34:09;;;;;;;6.70;1.40;;;;;;;-128.00;-1.00;-1.00;106296;1259;1010679;-77
2023/06/10 05:36:57;;;;;;;9.50;1.90;;;;;;;-128.00;-1.00;-1.00;106173;1259;1013138;-74
2023/06/10 05:39:43;;;;;;;7.10;1.60;;;;;;;-128.00;-1.00;-1.00;106280;1259;1012475;-74
2023/06/10 05:42:30;;;;;;;8.70;1.90;;;;;;;-128.00;-1.00;-1.00;106317;1259;1013365;-73
2023/06/10 05:45:16;;;;;;;8.20;1.80;;;;;;;-128.00;-1.00;-1.00;106336;1259;1009818;-74
2023/06/10 05:48:03;;;;;;;6.70;1.50;;;;;;;-128.00;-1.00;-1.00;106263;1259;1011676;-75
2023/06/10 05:50:50;;;;;;;11.30;1.70;;;;;;;-128.00;-1.00;-1.00;106399;1254;1012248;-75
2023/06/10 05:53:41;;;;;;;10.70;1.70;;;;;;;-128.00;-1.00;-1.00;106480;1254;1012021;-76
2023/06/10 05:56:28;;;;;;;12.50;1.80;;;;;;;-128.00;-1.00;-1.00;106502;1254;1013532;-76
2023/06/10 05:59:16;;;;;;;9.70;2.20;;;;;;;-128.00;-1.00;-1.00;106575;1254;1010391;-74
2023/06/10 06:02:03;;;;;;;6.70;1.50;;;;;;;-128.00;-1.00;-1.00;106610;1254;1011533;-77
2023/06/10 06:04:49;;;;;;;9.60;1.60;;;;;;;-128.00;-1.00;-1.00;106524;1254;1012783;-80
2023/06/10 06:07:37;;;;;;;7.40;1.60;;;;;;;-128.00;-1.00;-1.00;106510;1262;1012320;-77
2023/06/10 06:10:26;;;;;;;7.00;1.30;;;;;;;-128.00;-1.00;-1.00;106439;1254;1012727;-78
2023/06/10 06:13:14;;;;;;;9.20;1.60;;;;;;;-128.00;-1.00;-1.00;106637;1254;1010352;-77
2023/06/10 06:16:01;;;;;;;8.40;1.40;;;;;;;-128.00;-1.00;-1.00;106479;1254;1010485;-76
2023/06/10 06:18:48;;;;;;;7.60;1.60;;;;;;;-128.00;-1.00;-1.00;106601;1254;1012520;-74
2023/06/10 06:21:34;;;;;;;7.50;1.50;;;;;;;-128.00;-1.00;-1.00;106556;1255;1012593;-76
2023/06/10 06:24:21;;;;;;;7.80;1.30;;;;;;;-128.00;-1.00;-1.00;106533;1254;1013061;-73
2023/06/10 06:27:12;;;;;;;8.40;1.40;;;;;;;-128.00;-1.00;-1.00;106554;1255;1009570;-75
2023/06/10 06:29:59;;;;;;;15.60;9.30;;;;;;;-128.00;-1.00;-1.00;106686;1254;1010763;-78
2023/06/10 06:32:46;;;;;;;8.80;1.90;;;;;;;-128.00;-1.00;-1.00;106570;1254;1013148;-75
2023/06/10 06:35:34;;;;;;;8.60;1.50;;;;;;;-128.00;-1.00;-1.00;106513;1258;1012973;-77
2023/06/10 06:38:20;;;;;;;8.60;1.50;;;;;;;-128.00;-1.00;-1.00;106589;1254;1012786;-73
2023/06/10 06:41:11;;;;;;;6.70;1.20;;;;;;;-128.00;-1.00;-1.00;106502;1254;1009783;-72
2023/06/10 06:43:58;;;;;;;9.20;1.30;;;;;;;-128.00;-1.00;-1.00;106437;1254;1010910;-73
2023/06/10 06:46:53;;;;;;;6.30;1.50;;;;;;;-128.00;-1.00;-1.00;106598;1255;1012582;-74
2023/06/10 06:49:42;;;;;;;10.30;1.50;;;;;;;-128.00;-1.00;-1.00;106425;1254;1013887;-73
2023/06/10 06:52:29;;;;;;;8.10;1.20;;;;;;;-128.00;-1.00;-1.00;106525;1254;1012343;-75
2023/06/10 06:55:16;;;;;;;6.80;1.50;;;;;;;-128.00;-1.00;-1.00;106499;1254;1009570;-74
2023/06/10 06:58:03;;;;;;;7.10;1.30;;;;;;;-128.00;-1.00;-1.00;106387;1255;1010845;-76
2023/06/10 07:00:50;;;;;;;7.10;1.30;;;;;;;-128.00;-1.00;-1.00;106648;1254;1013523;-77
2023/06/10 07:03:37;;;;;;;5.90;1.00;;;;;;;-128.00;-1.00;-1.00;106493;1254;1013116;-77
2023/06/10 07:06:25;;;;;;;8.00;1.40;;;;;;;-128.00;-1.00;-1.00;106523;1254;1013498;-75
2023/06/10 07:09:16;;;;;;;6.20;1.40;;;;;;;-128.00;-1.00;-1.00;106486;1254;1009533;-77
2023/06/10 07:12:05;;;;;;;7.10;1.30;;;;;;;-128.00;-1.00;-1.00;106610;1254;1010890;-75
2023/06/10 07:14:52;;;;;;;6.10;1.30;;;;;;;-128.00;-1.00;-1.00;106482;1254;1012650;-75
2023/06/10 07:17:39;;;;;;;6.60;1.10;;;;;;;-128.00;-1.00;-1.00;106538;1254;1012238;-73
2023/06/10 07:20:26;;;;;;;5.60;1.00;;;;;;;-128.00;-1.00;-1.00;106466;1254;1012786;-75
2023/06/10 07:23:13;;;;;;;6.40;1.20;;;;;;;-128.00;-1.00;-1.00;106450;1254;1010174;-72
2023/06/10 07:26:00;;;;;;;7.20;1.20;;;;;;;-128.00;-1.00;-1.00;106583;1254;1011218;-75
2023/06/10 07:28:46;;;;;;;6.40;1.20;;;;;;;-128.00;-1.00;-1.00;106541;1254;1012199;-73
2023/06/10 07:31:33;;;;;;;8.00;1.20;;;;;;;-128.00;-1.00;-1.00;106493;1254;1013312;-74
2023/06/10 07:34:21;;;;;;;6.40;1.10;;;;;;;-128.00;-1.00;-1.00;106532;1254;1013026;-74
2023/06/10 07:37:08;;;;;;;6.90;1.40;;;;;;;-128.00;-1.00;-1.00;106596;1254;1009962;-75
2023/06/10 07:39:56;;;;;;;8.60;1.30;;;;;;;-128.00;-1.00;-1.00;106488;1254;1010502;-71
2023/06/10 07:42:43;;;;;;;7.10;1.20;;;;;;;-128.00;-1.00;-1.00;106428;1254;1012684;-72
2023/06/10 07:45:30;;;;;;;6.50;1.60;;;;;;;-128.00;-1.00;-1.00;106448;1254;1012744;-71
2023/06/10 07:48:19;;;;;;;6.00;1.30;;;;;;;-128.00;-1.00;-1.00;106513;1255;1013159;-74
2023/06/10 07:51:06;;;;;;;8.10;1.20;;;;;;;-128.00;-1.00;-1.00;106529;1254;1010190;-72
2023/06/10 07:53:55;;;;;;;7.40;1.10;;;;;;;-128.00;-1.00;-1.00;106609;1254;1011631;-73
2023/06/10 07:56:42;;;;;;;8.30;1.00;;;;;;;-128.00;-1.00;-1.00;106584;1254;1013120;-74
2023/06/10 07:59:29;;;;;;;6.90;1.00;;;;;;;-128.00;-1.00;-1.00;106496;1254;1012812;-76
2023/06/10 08:02:16;;;;;;;6.90;1.20;;;;;;;-128.00;-1.00;-1.00;106494;1255;1013204;-73
2023/06/10 08:05:04;;;;;;;6.90;1.20;;;;;;;-128.00;-1.00;-1.00;106672;1254;1009101;-75
2023/06/10 08:07:51;;;;;;;5.90;1.10;;;;;;;-128.00;-1.00;-1.00;106597;1256;1011635;-76
2023/06/10 08:10:37;;;;;;;6.00;1.10;;;;;;;-128.00;-1.00;-1.00;106476;1255;1011962;-73
2023/06/10 08:13:24;;;;;;;5.90;1.30;;;;;;;-128.00;-1.00;-1.00;106460;1254;1012660;-71
2023/06/10 08:16:11;;;;;;;6.70;1.30;;;;;;;-128.00;-1.00;-1.00;106615;1254;1012629;-74
2023/06/10 08:18:58;;;;;;;10.80;1.30;;;;;;;-128.00;-1.00;-1.00;106428;1254;1009645;-75
2023/06/10 08:21:45;;;;;;;8.50;1.20;;;;;;;-128.00;-1.00;-1.00;106524;1254;1011020;-72
2023/06/10 08:24:33;;;;;;;6.10;1.10;;;;;;;-128.00;-1.00;-1.00;106459;1254;1013170;-72
2023/06/10 08:27:19;;;;;;;6.60;1.10;;;;;;;-128.00;-1.00;-1.00;106453;1259;1011929;-73
2023/06/10 08:30:07;;;;;;;9.10;1.00;;;;;;;-128.00;-1.00;-1.00;106407;1255;1012323;-73
2023/06/10 08:32:55;;;;;;;6.90;1.10;;;;;;;-128.00;-1.00;-1.00;106445;1254;1009171;-75
2023/06/10 08:35:42;;;;;;;5.40;1.20;;;;;;;-128.00;-1.00;-1.00;106521;1255;1010737;-75
2023/06/10 08:38:28;;;;;;;8.10;1.60;;;;;;;-128.00;-1.00;-1.00;106415;1254;1013442;-73
2023/06/10 08:41:18;;;;;;;7.10;1.40;;;;;;;-128.00;-1.00;-1.00;106753;1254;1013047;-73
2023/06/10 08:44:25;;;;;;;7.70;1.30;;;;;;;-128.00;-1.00;-1.00;106571;1254;1011956;-72
2023/06/10 08:47:17;;;;;;;6.10;1.20;;;;;;;-128.00;-1.00;-1.00;106601;1254;1010543;-72
2023/06/10 08:50:04;;;;;;;9.00;1.30;;;;;;;-128.00;-1.00;-1.00;106556;1253;1011019;-74
2023/06/10 08:52:58;;;;;;;6.60;1.20;;;;;;;-128.00;-1.00;-1.00;106490;1255;1012516;-73
2023/06/10 08:55:51;;;;;;;7.10;1.10;;;;;;;-128.00;-1.00;-1.00;106442;1254;1012671;-72
2023/06/10 08:58:41;;;;;;;8.40;1.20;;;;;;;-128.00;-1.00;-1.00;106427;1254;1013060;-71
2023/06/10 09:01:29;;;;;;;7.70;1.10;;;;;;;-128.00;-1.00;-1.00;106436;1254;1010862;-73
2023/06/10 09:04:19;;;;;;;7.60;1.10;;;;;;;-128.00;-1.00;-1.00;106498;1254;1010052;-73
2023/06/10 09:07:06;;;;;;;7.00;1.10;;;;;;;-128.00;-1.00;-1.00;106607;1256;1012379;-75
2023/06/10 09:09:54;;;;;;;5.50;1.00;;;;;;;-128.00;-1.00;-1.00;106498;1254;1013054;-74
2023/06/10 09:12:41;;;;;;;6.60;1.20;;;;;;;-128.00;-1.00;-1.00;106436;1256;1012540;-77
2023/06/10 09:15:28;;;;;;;7.70;1.20;;;;;;;-128.00;-1.00;-1.00;106534;1255;1009418;-76
2023/06/10 09:18:17;;;;;;;10.10;1.20;;;;;;;-128.00;-1.00;-1.00;106517;1254;1012112;-78
2023/06/10 09:21:04;;;;;;;5.50;1.10;;;;;;;-128.00;-1.00;-1.00;106446;1255;1012423;-74
2023/06/10 09:23:51;;;;;;;8.00;1.30;;;;;;;-128.00;-1.00;-1.00;106533;1254;1012323;-74
2023/06/10 09:26:37;;;;;;;8.50;1.00;;;;;;;-128.00;-1.00;-1.00;106504;1254;1012334;-72
2023/06/10 09:29:25;;;;;;;9.10;1.10;;;;;;;-128.00;-1.00;-1.00;106636;1255;1009955;-72
2023/06/10 09:32:13;;;;;;;6.10;1.30;;;;;;;-128.00;-1.00;-1.00;106616;1254;1011055;-74
2023/06/10 09:35:08;;;;;;;6.30;1.30;;;;;;;-128.00;-1.00;-1.00;106552;1254;1013374;-74
2023/06/10 09:38:02;;;;;;;6.30;1.10;;;;;;;-128.00;-1.00;-1.00;106426;1254;1012688;-75
2023/06/10 09:40:53;;;;;;;7.10;1.10;;;;;;;-128.00;-1.00;-1.00;106463;1255;1013317;-76
2023/06/10 09:43:46;;;;;;;6.30;1.10;;;;;;;-128.00;-1.00;-1.00;106539;1256;1009061;-74
2023/06/10 09:46:32;;;;;;;7.60;1.10;;;;;;;-128.00;-1.00;-1.00;106563;1254;1010515;-74
2023/06/10 09:49:19;;;;;;;6.90;1.30;;;;;;;-128.00;-1.00;-1.00;106501;1258;1012220;-74
2023/06/10 09:52:06;;;;;;;8.10;1.20;;;;;;;-128.00;-1.00;-1.00;106519;1254;1011813;-75
2023/06/10 09:55:01;;;;;;;6.80;1.50;;;;;;;-128.00;-1.00;-1.00;106538;1254;1012748;-76
2023/06/10 09:57:54;;;;;;;6.60;1.20;;;;;;;-128.00;-1.00;-1.00;106424;1254;1009818;-75
2023/06/10 10:00:41;;;;;;;5.20;1.20;;;;;;;-128.00;-1.00;-1.00;106571;1254;1011229;-76
2023/06/10 10:03:27;;;;;;;6.20;1.20;;;;;;;-128.00;-1.00;-1.00;106564;1254;1012891;-76
2023/06/10 10:06:16;;;;;;;5.80;1.60;;;;;;;-128.00;-1.00;-1.00;106507;1255;1012678;-73
2023/06/10 10:09:03;;;;;;;6.70;1.40;;;;;;;-128.00;-1.00;-1.00;106466;1254;1012704;-72
2023/06/10 10:11:52;;;;;;;8.20;1.20;;;;;;;-128.00;-1.00;-1.00;106481;1254;1010168;-75
2023/06/10 10:14:45;;;;;;;6.50;1.40;;;;;;;-128.00;-1.00;-1.00;106424;1256;1010801;-75
2023/06/10 10:17:33;;;;;;;8.90;2.10;;;;;;;-128.00;-1.00;-1.00;106576;1255;1012366;-71
2023/06/10 10:20:26;;;;;;;8.80;2.90;;;;;;;-128.00;-1.00;-1.00;106594;1260;1013139;-73
2023/06/10 10:23:21;;;;;;;11.80;1.80;;;;;;;-128.00;-1.00;-1.00;106444;1256;1012996;-73
2023/06/10 10:26:11;;;;;;;6.30;1.60;;;;;;;-128.00;-1.00;-1.00;106403;1254;1010516;-75
2023/06/10 10:29:29;;;;;;;7.10;1.30;;;;;;;-128.00;-1.00;-1.00;106579;1254;1010658;-76
2023/06/10 10:32:16;;;;;;;8.30;1.80;;;;;;;-128.00;-1.00;-1.00;106394;1254;1012013;-74
2023/06/10 10:35:16;;;;;;;5.00;1.10;;;;;;;-128.00;-1.00;-1.00;106482;1254;1012428;-70
2023/06/10 10:38:04;;;;;;;7.70;1.40;;;;;;;-128.00;-1.00;-1.00;106486;1256;1013469;-74
2023/06/10 10:40:52;;;;;;;10.00;2.10;;;;;;;-128.00;-1.00;-1.00;106379;1255;1009499;-72
2023/06/10 10:43:39;;;;;;;8.60;1.10;;;;;;;-128.00;-1.00;-1.00;106581;1254;1010835;-72
2023/06/10 10:46:27;;;;;;;6.20;1.30;;;;;;;-128.00;-1.00;-1.00;106528;1254;1012633;-73
2023/06/10 10:49:14;;;;;;;8.40;1.20;;;;;;;-128.00;-1.00;-1.00;106551;1254;1011827;-70
2023/06/10 10:52:05;;;;;;;8.40;1.30;;;;;;;-128.00;-1.00;-1.00;106694;1255;1012921;-71
2023/06/10 10:54:54;;;;;;;6.90;1.60;;;;;;;-128.00;-1.00;-1.00;106728;1254;1010388;-72
2023/06/10 10:57:41;;;;;;;8.10;1.30;;;;;;;-128.00;-1.00;-1.00;106610;1255;1010527;-71
2023/06/10 11:00:38;;;;;;;8.40;1.50;;;;;;;-128.00;-1.00;-1.00;106499;1254;1012419;-72
2023/06/10 11:03:32;;;;;;;6.90;1.20;;;;;;;-128.00;-1.00;-1.00;106612;1254;1012901;-71
2023/06/10 11:06:19;;;;;;;6.40;1.30;;;;;;;-128.00;-1.00;-1.00;106560;1256;1012213;-72
2023/06/10 11:10:06;;;;;;;5.90;1.50;;;;;;;-128.00;-1.00;-1.00;106413;1254;1010025;-70
2023/06/10 11:12:54;;;;;;;5.80;1.20;;;;;;;-128.00;-1.00;-1.00;106174;1262;1011017;-73
2023/06/10 11:15:49;;;;;;;5.10;1.50;;;;;;;-128.00;-1.00;-1.00;106121;1261;1011952;-71
2023/06/10 11:18:39;;;;;;;8.10;1.50;;;;;;;-128.00;-1.00;-1.00;106156;1262;1012982;-73
2023/06/10 11:21:26;;;;;;;7.90;1.30;;;;;;;-128.00;-1.00;-1.00;106117;1261;1013254;-72
2023/06/10 11:24:15;;;;;;;7.20;1.30;;;;;;;-128.00;-1.00;-1.00;106104;1261;1009629;-72
2023/06/10 11:27:24;;;;;;;7.00;1.80;;;;;;;-128.00;-1.00;-1.00;106150;1262;1010301;-70
2023/06/10 11:30:20;;;;;;;8.00;2.50;;;;;;;-128.00;-1.00;-1.00;106196;1262;1012108;-71
2023/06/10 11:33:07;;;;;;;12.60;1.90;;;;;;;-128.00;-1.00;-1.00;106222;1265;1012881;-72
2023/06/10 11:35:55;;;;;;;8.00;1.90;;;;;;;-128.00;-1.00;-1.00;106221;1261;1012704;-71
2023/06/10 11:38:43;;;;;;;5.90;1.40;;;;;;;-128.00;-1.00;-1.00;106150;1262;1010024;-70
2023/06/10 11:41:32;;;;;;;9.60;1.80;;;;;;;-128.00;-1.00;-1.00;106187;1262;1010504;-72
2023/06/10 11:44:18;;;;;;;7.90;1.70;;;;;;;-128.00;-1.00;-1.00;106081;1262;1012431;-68
2023/06/10 11:47:09;;;;;;;6.70;1.60;;;;;;;-128.00;-1.00;-1.00;106227;1265;1012671;-72
2023/06/10 11:49:57;;;;;;;5.80;1.50;;;;;;;-128.00;-1.00;-1.00;106538;1254;1012587;-71
2023/06/10 11:52:44;;;;;;;6.00;1.70;;;;;;;-128.00;-1.00;-1.00;106770;1254;1010692;-70
2023/06/10 11:55:43;;;;;;;6.60;1.40;;;;;;;-128.00;-1.00;-1.00;106426;1257;1010684;-70
2023/06/10 11:58:31;;;;;;;8.80;1.50;;;;;;;-128.00;-1.00;-1.00;106551;1254;1012702;-69
2023/06/10 12:01:22;;;;;;;8.40;1.90;;;;;;;-128.00;-1.00;-1.00;106569;1254;1012526;-71
2023/06/10 12:04:18;;;;;;;8.80;1.60;;;;;;;-128.00;-1.00;-1.00;106578;1255;1013581;-69
2023/06/10 12:07:05;;;;;;;10.50;1.50;;;;;;;-128.00;-1.00;-1.00;106460;1260;1009780;-71
2023/06/10 12:10:01;;;;;;;8.40;1.70;;;;;;;-128.00;-1.00;-1.00;106498;1256;1010797;-69
2023/06/10 12:13:09;;;;;;;8.50;1.90;;;;;;;-128.00;-1.00;-1.00;106511;1254;1011971;-72
2023/06/10 12:16:11;;;;;;;7.90;1.90;;;;;;;-128.00;-1.00;-1.00;106713;1254;1012101;-71
2023/06/10 12:19:06;;;;;;;9.90;1.80;;;;;;;-128.00;-1.00;-1.00;106599;1254;1012495;-74
2023/06/10 12:21:53;;;;;;;6.30;1.40;;;;;;;-128.00;-1.00;-1.00;106490;1254;1010312;-68
2023/06/10 12:25:00;;;;;;;11.60;1.50;;;;;;;-128.00;-1.00;-1.00;106602;1255;1011513;-72
2023/06/10 12:27:52;;;;;;;8.60;1.80;;;;;;;-128.00;-1.00;-1.00;106584;1254;1012617;-71
2023/06/10 12:30:39;;;;;;;8.10;1.80;;;;;;;-128.00;-1.00;-1.00;106478;1258;1013293;-70
2023/06/10 12:33:25;;;;;;;6.10;1.70;;;;;;;-128.00;-1.00;-1.00;106489;1254;1012897;-72
2023/06/10 12:36:17;;;;;;;8.00;1.60;;;;;;;-128.00;-1.00;-1.00;106440;1254;1009514;-72
2023/06/10 12:39:05;;;;;;;7.50;1.40;;;;;;;-128.00;-1.00;-1.00;106561;1255;1010624;-74
2023/06/10 12:41:52;;;;;;;8.10;1.50;;;;;;;-128.00;-1.00;-1.00;106484;1254;1013119;-71
2023/06/10 12:44:40;;;;;;;7.40;1.50;;;;;;;-128.00;-1.00;-1.00;106718;1259;1013198;-71
2023/06/10 12:47:34;;;;;;;7.50;1.70;;;;;;;-128.00;-1.00;-1.00;106332;1255;1013315;-72
2023/06/10 12:50:21;;;;;;;7.90;1.70;;;;;;;-128.00;-1.00;-1.00;106484;1254;1010380;-72
2023/06/10 12:53:12;;;;;;;6.40;1.40;;;;;;;-128.00;-1.00;-1.00;106525;1254;1011513;-72
2023/06/10 12:55:59;;;;;;;7.60;1.40;;;;;;;-128.00;-1.00;-1.00;106666;1254;1013184;-73
2023/06/10 12:58:46;;;;;;;7.20;1.70;;;;;;;-128.00;-1.00;-1.00;106679;1258;1012352;-71